Time;durP1;ratioP1;P1;durP2;ratioP2;P2;SDS_P1;SDS_P2;PMS_P1;PMS_P2;Temp;Humidity;BMP_temperature;BMP_pressure;BME280_temperature;BME280_humidity;BME280_pressure;Samples;Min_cycle;Max_cycle;Signal;HPM_P1;HPM_P2
2023/11/09 00:03:57;;;;;;;3.60;2.70;;;10.80;99.90;;;;;;20726150;28;20048;-43
2023/11/09 00:13:58;;;;;;;6.38;2.92;;;10.80;99.90;;;;;;20734818;28;20124;-43
2023/11/09 00:23:58;;;;;;;4.00;2.95;;;10.80;99.90;;;;;;20747302;28;20131;-42
2023/11/09 00:33:59;;;;;;;5.70;3.72;;;10.80;99.90;;;;;;20742305;28;20129;-43
2023/11/09 00:43:59;;;;;;;6.35;4.28;;;10.80;99.90;;;;;;20744461;28;20053;-44
2023/11/09 00:54:00;;;;;;;4.97;4.30;;;10.80;99.90;;;;;;20740601;28;20582;-43
2023/11/09 01:04:00;;;;;;;5.28;4.05;;;10.80;99.90;;;;;;20741683;28;20038;-44
2023/11/09 01:14:01;;;;;;;6.32;4.47;;;10.80;99.90;;;;;;20742330;28;20117;-43
2023/11/09 01:24:02;;;;;;;7.13;5.30;;;10.80;99.90;;;;;;20744939;28;20090;-43
2023/11/09 01:34:03;;;;;;;6.37;4.43;;;10.90;99.90;;;;;;20741928;28;20073;-43
2023/11/09 01:44:04;;;;;;;7.23;5.10;;;10.80;99.90;;;;;;20742089;28;20453;-43
2023/11/09 01:54:06;;;;;;;6.93;5.75;;;10.80;99.90;;;;;;20741902;28;20045;-43
2023/11/09 02:04:08;;;;;;;7.55;5.75;;;10.90;99.90;;;;;;20740758;28;20034;-44
2023/11/09 02:14:09;;;;;;;7.30;4.50;;;10.90;99.90;;;;;;20736952;28;20564;-43
2023/11/09 02:24:11;;;;;;;3.50;1.80;;;10.90;99.90;;;;;;20742752;28;20116;-43
2023/11/09 02:34:15;;;;;;;2.33;1.00;;;10.80;99.90;;;;;;20734227;28;20042;-44
2023/11/09 02:44:16;;;;;;;3.03;1.10;;;10.60;99.90;;;;;;20740668;28;20042;-43
2023/11/09 02:54:16;;;;;;;1.92;0.90;;;10.50;99.90;;;;;;20737721;28;20120;-43
2023/11/09 03:04:17;;;;;;;5.15;0.90;;;10.40;99.90;;;;;;20732735;28;20489;-43
2023/11/09 03:14:18;;;;;;;1.38;0.63;;;10.40;99.90;;;;;;20706493;28;20068;-43
2023/11/09 03:24:19;;;;;;;2.83;0.82;;;10.30;99.90;;;;;;20732828;28;20041;-43
2023/11/09 03:34:34;;;;;;;2.85;1.13;;;10.30;99.90;;;;;;20726208;27;20647;-44
2023/11/09 03:44:39;;;;;;;5.03;0.95;;;10.20;99.90;;;;;;20722038;28;20038;-42
2023/11/09 03:54:39;;;;;;;3.22;1.40;;;10.20;99.90;;;;;;20720183;28;20029;-42
2023/11/09 04:04:40;;;;;;;4.90;1.98;;;10.10;99.90;;;;;;20715156;28;20129;-42
2023/11/09 04:14:40;;;;;;;6.35;1.92;;;10.10;99.90;;;;;;20716528;28;20117;-42
2023/11/09 04:24:41;;;;;;;5.63;1.80;;;10.10;99.90;;;;;;20721438;28;20065;-42
2023/11/09 04:34:45;;;;;;;6.50;2.20;;;10.10;99.90;;;;;;20713973;28;20509;-42
2023/11/09 04:44:46;;;;;;;6.80;3.08;;;10.20;99.90;;;;;;20665885;28;20034;-42
2023/11/09 04:54:56;;;;;;;8.32;3.53;;;10.20;99.90;;;;;;20662532;28;20061;-43
2023/11/09 05:15:16;;;;;;;8.88;3.80;;;10.10;99.90;;;;;;20652954;28;20033;-42
2023/11/09 05:25:18;;;;;;;8.67;3.53;;;10.10;99.90;;;;;;20656202;28;20053;-42
2023/11/09 05:35:19;;;;;;;9.75;3.88;;;10.00;99.90;;;;;;20653039;28;20117;-42
2023/11/09 05:45:19;;;;;;;10.00;3.78;;;10.00;99.90;;;;;;20655003;28;20101;-42
2023/11/09 05:55:20;;;;;;;11.13;2.90;;;10.00;99.90;;;;;;20651258;28;20493;-43
2023/11/09 06:05:24;;;;;;;11.45;2.60;;;9.90;99.90;;;;;;20654061;28;20646;-42
2023/11/09 06:15:25;;;;;;;11.13;3.33;;;9.80;99.90;;;;;;20650833;28;20052;-43
2023/11/09 06:25:26;;;;;;;10.95;4.18;;;9.80;99.90;;;;;;20653224;28;20046;-43
2023/11/09 06:35:26;;;;;;;15.60;5.18;;;9.70;99.90;;;;;;20650675;28;20049;-43
2023/11/09 06:45:27;;;;;;;21.75;6.28;;;9.60;99.90;;;;;;20653907;28;20506;-42
2023/11/09 06:55:28;;;;;;;13.50;6.85;;;9.50;99.90;;;;;;20647846;28;20034;-42
2023/11/09 07:05:29;;;;;;;15.63;7.95;;;9.40;99.90;;;;;;20656102;28;20053;-42
2023/11/09 07:15:30;;;;;;;20.10;8.65;;;9.30;99.90;;;;;;20647910;28;20121;-42
2023/11/09 07:25:31;;;;;;;22.58;9.15;;;9.30;99.90;;;;;;20642777;28;20058;-42
2023/11/09 07:35:32;;;;;;;21.70;9.23;;;9.20;99.90;;;;;;20636410;28;20125;-41
2023/11/09 07:45:32;;;;;;;27.83;12.53;;;9.20;99.90;;;;;;20635033;28;20156;-42
2023/11/09 07:55:33;;;;;;;24.70;8.93;;;9.20;99.90;;;;;;20647614;28;20545;-42
2023/11/09 08:05:40;;;;;;;22.27;6.55;;;9.20;99.90;;;;;;20632487;28;20488;-42
2023/11/09 08:15:41;;;;;;;19.35;5.80;;;9.30;99.90;;;;;;20646833;28;20030;-42
2023/11/09 08:25:41;;;;;;;17.45;6.03;;;9.60;99.90;;;;;;20620153;28;20770;-41
2023/11/09 08:35:43;;;;;;;16.52;6.30;;;9.60;99.90;;;;;;20647502;28;20042;-42
2023/11/09 08:45:44;;;;;;;16.45;6.10;;;9.70;99.90;;;;;;20664150;28;20041;-41
2023/11/09 08:55:45;;;;;;;18.67;6.90;;;9.70;99.90;;;;;;20660818;28;20034;-41
2023/11/09 09:05:46;;;;;;;15.52;6.80;;;9.90;99.90;;;;;;20658000;28;20049;-42
2023/11/09 09:15:48;;;;;;;22.27;6.90;;;10.10;99.90;;;;;;20648493;28;20205;-42
2023/11/09 09:25:51;;;;;;;19.45;7.30;;;10.30;99.90;;;;;;20640863;28;20057;-41
2023/11/09 09:35:52;;;;;;;22.33;7.03;;;10.50;99.90;;;;;;20607595;28;20759;-41
2023/11/09 09:45:56;;;;;;;19.02;4.95;;;10.50;99.90;;;;;;20650154;28;20133;-42
2023/11/09 09:55:57;;;;;;;17.00;4.60;;;10.50;99.90;;;;;;20642360;28;20029;-42
2023/11/09 10:05:58;;;;;;;17.85;5.00;;;10.60;99.90;;;;;;20653682;28;20038;-42
2023/11/09 10:16:00;;;;;;;13.63;3.50;;;10.60;99.90;;;;;;20647173;28;20501;-41
2023/11/09 10:26:02;;;;;;;22.67;5.00;;;10.80;99.90;;;;;;20651179;28;20409;-41
2023/11/09 10:36:04;;;;;;;15.70;4.10;;;11.00;49.00;;;;;;20649774;28;20045;-42
2023/11/09 10:46:08;;;;;;;13.75;3.35;;;11.10;36.30;;;;;;20653273;28;20165;-41
2023/11/09 10:56:13;;;;;;;12.98;3.90;;;11.10;11.60;;;;;;20655419;28;20045;-42
2023/11/09 11:06:25;;;;;;;13.27;3.50;;;11.10;19.80;;;;;;20650633;28;20545;-41
2023/11/09 11:16:38;;;;;;;15.50;3.45;;;11.30;4.10;;;;;;20646569;28;20041;-41
2023/11/09 11:26:51;;;;;;;11.73;3.05;;;11.50;1.00;;;;;;20664345;28;20140;-41
2023/11/09 11:36:52;;;;;;;12.80;2.80;;;11.50;1.00;;;;;;20663908;28;20045;-41
2023/11/09 11:46:53;;;;;;;11.35;2.83;;;11.30;1.00;;;;;;20659244;28;20050;-41
2023/11/09 11:56:53;;;;;;;16.60;3.87;;;11.20;1.00;;;;;;20657199;28;20434;-42
2023/11/09 12:06:55;;;;;;;12.10;2.83;;;11.10;1.00;;;;;;20660969;28;20472;-42
2023/11/09 12:16:56;;;;;;;15.80;3.05;;;11.10;1.00;;;;;;20665108;28;20959;-41
2023/11/09 12:27:05;;;;;;;11.30;2.28;;;11.00;1.00;;;;;;20659853;28;20144;-41
2023/11/09 12:37:14;;;;;;;15.65;3.13;;;11.10;1.00;;;;;;20663847;28;20461;-41
2023/11/09 12:47:17;;;;;;;16.80;2.75;;;11.10;1.00;;;;;;20666650;28;20054;-41
2023/11/09 12:57:22;;;;;;;11.45;2.20;;;11.20;1.00;;;;;;20659630;28;20775;-41
2023/11/09 13:07:24;;;;;;;16.38;2.45;;;11.10;1.00;;;;;;20657044;28;20042;-41
2023/11/09 13:17:25;;;;;;;14.82;2.30;;;11.20;1.00;;;;;;20659014;28;20038;-41
2023/11/09 13:27:26;;;;;;;15.23;2.45;;;11.20;1.00;;;;;;20651013;28;20061;-41
2023/11/09 13:37:35;;;;;;;24.08;4.43;;;11.30;1.00;;;;;;20655542;28;20929;-41
2023/11/09 13:47:35;;;;;;;15.40;2.63;;;11.30;1.00;;;;;;20657839;28;20120;-41
2023/11/09 13:57:40;;;;;;;14.40;2.70;;;11.50;1.00;;;;;;20656835;28;20343;-41
2023/11/09 14:07:42;;;;;;;16.38;3.20;;;11.60;1.00;;;;;;20666203;28;20104;-41
2023/11/09 14:17:47;;;;;;;9.43;2.42;;;11.60;1.00;;;;;;20651993;28;20030;-41
2023/11/09 14:27:49;;;;;;;15.60;3.40;;;11.50;1.00;;;;;;20659779;28;20077;-41
2023/11/09 14:37:50;;;;;;;14.63;3.05;;;11.60;1.00;;;;;;20654767;28;20129;-41
2023/11/09 14:47:51;;;;;;;13.23;2.25;;;11.60;1.00;;;;;;20654970;28;20050;-41
2023/11/09 14:57:52;;;;;;;15.07;3.05;;;11.60;1.00;;;;;;20658566;28;20061;-40
2023/11/09 15:07:54;;;;;;;15.70;2.85;;;11.60;1.00;;;;;;20650929;28;20169;-41
2023/11/09 15:17:58;;;;;;;10.70;1.98;;;11.50;1.00;;;;;;20649569;28;20042;-41
2023/11/09 15:28:07;;;;;;;1.48;0.10;;;11.40;1.00;;;;;;20648364;28;20042;-41
2023/11/09 15:38:07;;;;;;;0.30;0.10;;;10.80;1.00;;;;;;20643476;28;20406;-41
2023/11/09 15:48:08;;;;;;;0.85;0.20;;;10.00;1.00;;;;;;20628999;28;20046;-41
2023/11/09 15:58:10;;;;;;;0.60;0.22;;;9.60;1.20;;;;;;20637149;28;20041;-41
2023/11/09 16:08:11;;;;;;;1.38;0.25;;;9.40;23.60;;;;;;20625086;28;20148;-40
2023/11/09 16:18:12;;;;;;;1.92;0.80;;;9.40;48.20;;;;;;20635261;28;20571;-40
2023/11/09 16:28:19;;;;;;;3.25;0.88;;;9.20;78.10;;;;;;20632117;28;20462;-41
2023/11/09 16:38:20;;;;;;;3.37;1.13;;;9.10;99.90;;;;;;20605621;28;20118;-41
2023/11/09 16:48:21;;;;;;;5.43;1.88;;;9.10;99.90;;;;;;20653695;28;21294;-40
2023/11/09 16:58:21;;;;;;;4.03;1.60;;;9.30;99.90;;;;;;20651693;28;20505;-40
2023/11/09 17:08:23;;;;;;;5.32;1.40;;;9.50;99.90;;;;;;20662330;28;20087;-41
2023/11/09 17:18:24;;;;;;;3.58;1.05;;;9.30;99.90;;;;;;20656247;28;20611;-40
2023/11/09 17:28:24;;;;;;;3.75;1.13;;;9.20;99.90;;;;;;20644765;28;20489;-41
2023/11/09 17:38:25;;;;;;;5.45;2.30;;;9.00;76.10;;;;;;20649433;28;20113;-42
2023/11/09 17:48:29;;;;;;;4.80;2.75;;;9.00;79.80;;;;;;20654872;28;20088;-40
2023/11/09 17:58:30;;;;;;;4.25;2.30;;;8.70;90.80;;;;;;20653520;28;20065;-40
2023/11/09 18:08:30;;;;;;;3.47;1.90;;;8.70;97.50;;;;;;20641566;28;20057;-39
2023/11/09 18:18:31;;;;;;;3.53;1.77;;;8.60;99.90;;;;;;20636313;28;20316;-40
2023/11/09 18:28:31;;;;;;;2.88;1.80;;;8.50;90.10;;;;;;20641019;28;20055;-41
2023/11/09 18:38:33;;;;;;;2.92;1.40;;;8.50;93.30;;;;;;20599698;28;20558;-40
2023/11/09 18:48:34;;;;;;;4.18;2.03;;;8.40;95.30;;;;;;20632818;28;20038;-40
2023/11/09 18:58:35;;;;;;;3.35;1.92;;;8.40;94.50;;;;;;20625371;28;20038;-40
2023/11/09 19:08:35;;;;;;;6.93;3.08;;;8.30;92.60;;;;;;20638031;28;20038;-40
2023/11/09 19:18:36;;;;;;;19.10;11.40;;;8.30;91.60;;;;;;20643628;28;20042;-40
2023/11/09 19:28:37;;;;;;;10.23;8.10;;;8.40;98.40;;;;;;20637575;28;20065;-42
2023/11/09 19:38:37;;;;;;;9.48;5.10;;;8.50;99.90;;;;;;20650152;28;20049;-41
2023/11/09 19:48:38;;;;;;;8.40;3.50;;;8.50;99.90;;;;;;20644145;28;20143;-40
2023/11/09 19:58:39;;;;;;;7.50;2.83;;;8.50;96.70;;;;;;20636928;28;20045;-40
2023/11/09 20:08:40;;;;;;;7.72;2.28;;;8.60;74.90;;;;;;20631340;28;22230;-40
2023/11/09 20:18:41;;;;;;;3.45;1.85;;;8.60;74.20;;;;;;20605297;28;20029;-40
2023/11/09 20:28:43;;;;;;;7.68;2.63;;;8.50;64.40;;;;;;20628094;28;20354;-40
2023/11/09 20:38:44;;;;;;;8.32;3.30;;;8.40;56.00;;;;;;20639749;28;20490;-40
2023/11/09 20:48:44;;;;;;;6.05;2.83;;;8.50;51.70;;;;;;20645317;28;20494;-40
2023/11/09 20:58:46;;;;;;;5.72;3.00;;;8.50;36.90;;;;;;20639552;28;20543;-40
2023/11/09 21:08:46;;;;;;;4.50;2.50;;;8.50;31.70;;;;;;20631266;28;20046;-40
2023/11/09 21:18:47;;;;;;;5.30;2.40;;;8.50;30.70;;;;;;20637225;28;20496;-40
2023/11/09 21:28:48;;;;;;;5.35;2.15;;;8.40;25.70;;;;;;20633014;28;20123;-40
2023/11/09 21:38:48;;;;;;;2.78;1.60;;;8.30;29.30;;;;;;20648567;28;20489;-41
2023/11/09 21:48:49;;;;;;;3.80;1.65;;;8.20;22.20;;;;;;20638443;28;20088;-41
2023/11/09 21:58:50;;;;;;;5.50;1.40;;;8.20;16.50;;;;;;20646893;28;20440;-40
2023/11/09 22:08:50;;;;;;;4.97;1.10;;;8.20;8.80;;;;;;20642171;28;20042;-41
2023/11/09 22:18:52;;;;;;;4.40;1.33;;;8.20;6.90;;;;;;20636572;28;20046;-40
2023/11/09 22:28:52;;;;;;;4.25;1.40;;;8.10;7.40;;;;;;20630648;28;20553;-41
2023/11/09 22:38:53;;;;;;;3.97;1.45;;;8.10;4.40;;;;;;20628382;28;20076;-40
2023/11/09 22:48:54;;;;;;;2.85;1.10;;;8.00;8.20;;;;;;20650219;28;20121;-40
2023/11/09 22:58:54;;;;;;;3.63;1.20;;;7.90;8.70;;;;;;20628434;28;20509;-40
2023/11/09 23:08:55;;;;;;;6.03;1.35;;;7.90;7.60;;;;;;20630176;28;20046;-42
2023/11/09 23:18:56;;;;;;;3.90;1.15;;;8.00;4.10;;;;;;20624741;28;20297;-42
2023/11/09 23:28:56;;;;;;;5.93;1.98;;;7.80;9.60;;;;;;20617048;28;20109;-42
2023/11/09 23:38:57;;;;;;;2.67;0.70;;;7.80;5.90;;;;;;20623165;28;20482;-40
2023/11/09 23:48:59;;;;;;;3.42;0.77;;;7.70;4.30;;;;;;20636991;28;20590;-40
2023/11/09 23:59:00;;;;;;;3.35;1.00;;;7.80;8.60;;;;;;20634179;28;20481;-40
